sensor_id;sensor_type;location;lat;lon;timestamp;P1;durP1;ratioP1;P2;durP2;ratioP2
466;SDS011;72290;48.808;9.222;2023-10-13T05:03:32;23.17;;;9.37;;
466;SDS011;72290;48.808;9.222;2023-10-13T05:06:37;20.80;;;10.00;;
466;SDS011;72290;48.808;9.222;2023-10-13T05:09:09;29.70;;;10.67;;
466;SDS011;72290;48.808;9.222;2023-10-13T05:11:54;19.60;;;8.50;;
466;SDS011;72290;48.808;9.222;2023-10-13T05:14:39;29.73;;;10.27;;
466;SDS011;72290;48.808;9.222;2023-10-13T05:17:23;27.13;;;9.23;;
466;SDS011;72290;48.808;9.222;2023-10-13T05:20:08;26.83;;;10.20;;
466;SDS011;72290;48.808;9.222;2023-10-13T05:22:53;26.40;;;10.57;;
466;SDS011;72290;48.808;9.222;2023-10-13T05:25:48;26.50;;;9.90;;
466;SDS011;72290;48.808;9.222;2023-10-13T05:28:33;24.17;;;10.47;;
466;SDS011;72290;48.808;9.222;2023-10-13T05:31:17;19.50;;;8.63;;
466;SDS011;72290;48.808;9.222;2023-10-13T05:34:02;25.10;;;9.50;;
466;SDS011;72290;48.808;9.222;2023-10-13T05:36:46;19.43;;;9.67;;
466;SDS011;72290;48.808;9.222;2023-10-13T05:39:31;23.53;;;10.63;;
466;SDS011;72290;48.808;9.222;2023-10-13T05:42:15;31.63;;;10.63;;
466;SDS011;72290;48.808;9.222;2023-10-13T05:45:00;24.33;;;10.70;;
466;SDS011;72290;48.808;9.222;2023-10-13T05:47:41;29.77;;;10.10;;
466;SDS011;72290;48.808;9.222;2023-10-13T05:50:07;24.23;;;10.43;;
466;SDS011;72290;48.808;9.222;2023-10-13T05:52:46;35.17;;;11.80;;
466;SDS011;72290;48.808;9.222;2023-10-13T05:55:25;30.27;;;10.90;;
466;SDS011;72290;48.808;9.222;2023-10-13T05:58:10;26.60;;;12.67;;
466;SDS011;72290;48.808;9.222;2023-10-13T06:00:55;27.60;;;11.27;;
466;SDS011;72290;48.808;9.222;2023-10-13T06:03:40;21.53;;;10.60;;
466;SDS011;72290;48.808;9.222;2023-10-13T06:06:25;20.70;;;9.23;;
466;SDS011;72290;48.808;9.222;2023-10-13T06:09:09;23.17;;;9.97;;
466;SDS011;72290;48.808;9.222;2023-10-13T06:11:54;23.97;;;9.07;;
466;SDS011;72290;48.808;9.222;2023-10-13T06:14:39;22.10;;;9.73;;
466;SDS011;72290;48.808;9.222;2023-10-13T06:17:23;24.87;;;9.90;;
466;SDS011;72290;48.808;9.222;2023-10-13T06:20:08;22.80;;;8.70;;
466;SDS011;72290;48.808;9.222;2023-10-13T06:22:52;21.43;;;8.93;;
466;SDS011;72290;48.808;9.222;2023-10-13T06:25:37;23.70;;;9.10;;
466;SDS011;72290;48.808;9.222;2023-10-13T06:28:22;27.63;;;10.50;;
466;SDS011;72290;48.808;9.222;2023-10-13T06:31:07;30.57;;;11.30;;
466;SDS011;72290;48.808;9.222;2023-10-13T06:33:33;19.20;;;9.90;;
466;SDS011;72290;48.808;9.222;2023-10-13T06:36:02;23.80;;;10.47;;
466;SDS011;72290;48.808;9.222;2023-10-13T06:38:34;16.03;;;9.47;;
466;SDS011;72290;48.808;9.222;2023-10-13T06:41:03;26.10;;;11.30;;
466;SDS011;72290;48.808;9.222;2023-10-13T06:46:04;23.30;;;9.80;;
466;SDS011;72290;48.808;9.222;2023-10-13T06:48:30;29.40;;;11.00;;
466;SDS011;72290;48.808;9.222;2023-10-13T06:50:59;32.50;;;11.87;;
466;SDS011;72290;48.808;9.222;2023-10-13T06:53:30;28.20;;;10.87;;
466;SDS011;72290;48.808;9.222;2023-10-13T06:56:05;30.33;;;11.97;;
466;SDS011;72290;48.808;9.222;2023-10-13T06:58:31;38.37;;;11.00;;
466;SDS011;72290;48.808;9.222;2023-10-13T07:00:57;30.53;;;10.87;;
466;SDS011;72290;48.808;9.222;2023-10-13T07:03:24;33.27;;;13.40;;
466;SDS011;72290;48.808;9.222;2023-10-13T07:05:50;33.93;;;10.70;;
466;SDS011;72290;48.808;9.222;2023-10-13T07:08:17;35.43;;;10.57;;
466;SDS011;72290;48.808;9.222;2023-10-13T07:10:47;28.23;;;11.13;;
466;SDS011;72290;48.808;9.222;2023-10-13T07:13:17;26.03;;;11.97;;
466;SDS011;72290;48.808;9.222;2023-10-13T07:15:44;36.63;;;10.70;;
466;SDS011;72290;48.808;9.222;2023-10-13T07:18:13;23.13;;;10.47;;
466;SDS011;72290;48.808;9.222;2023-10-13T07:20:48;32.10;;;11.57;;
466;SDS011;72290;48.808;9.222;2023-10-13T07:23:14;24.97;;;11.53;;
466;SDS011;72290;48.808;9.222;2023-10-13T07:25:51;29.60;;;9.87;;
466;SDS011;72290;48.808;9.222;2023-10-13T07:28:18;35.57;;;12.23;;
466;SDS011;72290;48.808;9.222;2023-10-13T07:30:44;33.93;;;10.70;;
466;SDS011;72290;48.808;9.222;2023-10-13T07:33:19;23.97;;;10.80;;
466;SDS011;72290;48.808;9.222;2023-10-13T07:35:45;33.83;;;12.13;;
466;SDS011;72290;48.808;9.222;2023-10-13T07:38:15;28.00;;;11.47;;
466;SDS011;72290;48.808;9.222;2023-10-13T07:40:41;28.47;;;10.03;;
466;SDS011;72290;48.808;9.222;2023-10-13T07:43:15;32.70;;;11.27;;
466;SDS011;72290;48.808;9.222;2023-10-13T07:45:46;25.10;;;10.20;;
466;SDS011;72290;48.808;9.222;2023-10-13T07:48:23;21.43;;;10.00;;
466;SDS011;72290;48.808;9.222;2023-10-13T07:53:28;30.37;;;9.97;;
466;SDS011;72290;48.808;9.222;2023-10-13T07:55:59;30.27;;;10.53;;
466;SDS011;72290;48.808;9.222;2023-10-13T07:58:31;23.97;;;9.73;;
466;SDS011;72290;48.808;9.222;2023-10-13T08:00:57;24.17;;;9.67;;
466;SDS011;72290;48.808;9.222;2023-10-13T08:03:23;20.80;;;9.67;;
466;SDS011;72290;48.808;9.222;2023-10-13T08:06:07;23.83;;;9.83;;
466;SDS011;72290;48.808;9.222;2023-10-13T08:08:36;27.03;;;10.93;;
466;SDS011;72290;48.808;9.222;2023-10-13T08:11:09;35.63;;;10.10;;
466;SDS011;72290;48.808;9.222;2023-10-13T08:13:39;22.60;;;9.00;;
466;SDS011;72290;48.808;9.222;2023-10-13T08:16:11;21.50;;;9.00;;
466;SDS011;72290;48.808;9.222;2023-10-13T08:18:45;21.90;;;9.77;;
466;SDS011;72290;48.808;9.222;2023-10-13T08:21:14;20.83;;;9.07;;
466;SDS011;72290;48.808;9.222;2023-10-13T08:23:44;26.30;;;9.23;;
466;SDS011;72290;48.808;9.222;2023-10-13T08:26:22;36.60;;;9.80;;
466;SDS011;72290;48.808;9.222;2023-10-13T08:29:01;34.77;;;9.83;;
466;SDS011;72290;48.808;9.222;2023-10-13T08:31:47;35.30;;;10.50;;
466;SDS011;72290;48.808;9.222;2023-10-13T08:34:28;24.47;;;8.67;;
466;SDS011;72290;48.808;9.222;2023-10-13T08:36:55;19.00;;;8.10;;
466;SDS011;72290;48.808;9.222;2023-10-13T08:39:21;15.60;;;8.17;;
466;SDS011;72290;48.808;9.222;2023-10-13T08:42:06;19.90;;;9.07;;
466;SDS011;72290;48.808;9.222;2023-10-13T08:44:42;16.13;;;8.20;;
466;SDS011;72290;48.808;9.222;2023-10-13T08:47:17;22.20;;;8.57;;
466;SDS011;72290;48.808;9.222;2023-10-13T08:49:45;15.53;;;7.47;;
466;SDS011;72290;48.808;9.222;2023-10-13T08:52:16;18.60;;;7.40;;
466;SDS011;72290;48.808;9.222;2023-10-13T08:55:12;19.13;;;8.20;;
466;SDS011;72290;48.808;9.222;2023-10-13T08:58:04;29.47;;;8.13;;
466;SDS011;72290;48.808;9.222;2023-10-13T09:00:39;16.33;;;6.70;;
466;SDS011;72290;48.808;9.222;2023-10-13T09:03:21;19.33;;;7.97;;
466;SDS011;72290;48.808;9.222;2023-10-13T09:05:53;11.90;;;7.00;;
466;SDS011;72290;48.808;9.222;2023-10-13T09:08:29;25.70;;;6.77;;
466;SDS011;72290;48.808;9.222;2023-10-13T09:11:09;18.00;;;6.83;;
466;SDS011;72290;48.808;9.222;2023-10-13T09:13:38;15.93;;;5.80;;
466;SDS011;72290;48.808;9.222;2023-10-13T09:16:11;15.50;;;6.37;;
466;SDS011;72290;48.808;9.222;2023-10-13T09:19:06;15.53;;;5.90;;
466;SDS011;72290;48.808;9.222;2023-10-13T09:21:39;24.73;;;6.53;;
466;SDS011;72290;48.808;9.222;2023-10-13T09:24:07;25.77;;;5.87;;
466;SDS011;72290;48.808;9.222;2023-10-13T09:26:53;11.63;;;5.93;;
466;SDS011;72290;48.808;9.222;2023-10-13T09:29:21;20.07;;;6.40;;
466;SDS011;72290;48.808;9.222;2023-10-13T09:31:47;15.90;;;6.10;;
466;SDS011;72290;48.808;9.222;2023-10-13T09:34:24;13.13;;;5.90;;
466;SDS011;72290;48.808;9.222;2023-10-13T09:36:57;16.10;;;5.87;;
466;SDS011;72290;48.808;9.222;2023-10-13T09:39:26;15.10;;;6.80;;
466;SDS011;72290;48.808;9.222;2023-10-13T09:41:56;14.27;;;6.10;;
466;SDS011;72290;48.808;9.222;2023-10-13T09:44:24;19.20;;;5.70;;
466;SDS011;72290;48.808;9.222;2023-10-13T09:46:51;15.63;;;5.67;;
466;SDS011;72290;48.808;9.222;2023-10-13T09:49:19;14.50;;;5.97;;
466;SDS011;72290;48.808;9.222;2023-10-13T09:52:04;14.50;;;5.10;;
466;SDS011;72290;48.808;9.222;2023-10-13T09:54:36;15.70;;;4.70;;
466;SDS011;72290;48.808;9.222;2023-10-13T09:57:13;12.87;;;4.40;;
466;SDS011;72290;48.808;9.222;2023-10-13T09:59:49;14.43;;;4.90;;
466;SDS011;72290;48.808;9.222;2023-10-13T10:02:20;15.80;;;4.30;;
466;SDS011;72290;48.808;9.222;2023-10-13T10:04:55;11.33;;;4.00;;
466;SDS011;72290;48.808;9.222;2023-10-13T10:07:37;8.60;;;3.87;;
466;SDS011;72290;48.808;9.222;2023-10-13T10:10:05;18.10;;;4.50;;
466;SDS011;72290;48.808;9.222;2023-10-13T10:12:38;13.97;;;4.40;;
466;SDS011;72290;48.808;9.222;2023-10-13T10:17:59;16.77;;;4.70;;
466;SDS011;72290;48.808;9.222;2023-10-13T10:20:29;14.67;;;4.63;;
466;SDS011;72290;48.808;9.222;2023-10-13T10:23:09;13.70;;;5.73;;
466;SDS011;72290;48.808;9.222;2023-10-13T10:25:47;12.53;;;4.73;;
466;SDS011;72290;48.808;9.222;2023-10-13T10:28:13;10.60;;;4.83;;
466;SDS011;72290;48.808;9.222;2023-10-13T10:30:42;14.93;;;4.70;;
466;SDS011;72290;48.808;9.222;2023-10-13T10:33:09;9.87;;;4.10;;
466;SDS011;72290;48.808;9.222;2023-10-13T10:35:41;18.40;;;5.03;;
466;SDS011;72290;48.808;9.222;2023-10-13T10:38:11;12.80;;;4.00;;
466;SDS011;72290;48.808;9.222;2023-10-13T10:40:49;7.90;;;4.80;;
466;SDS011;72290;48.808;9.222;2023-10-13T10:43:29;8.60;;;4.20;;
466;SDS011;72290;48.808;9.222;2023-10-13T10:48:39;14.83;;;4.70;;
466;SDS011;72290;48.808;9.222;2023-10-13T10:51:12;19.03;;;4.80;;
466;SDS011;72290;48.808;9.222;2023-10-13T10:53:50;14.67;;;4.83;;
466;SDS011;72290;48.808;9.222;2023-10-13T10:56:25;8.27;;;4.10;;
466;SDS011;72290;48.808;9.222;2023-10-13T10:59:00;16.37;;;4.67;;
466;SDS011;72290;48.808;9.222;2023-10-13T11:01:30;13.10;;;4.80;;
466;SDS011;72290;48.808;9.222;2023-10-13T11:04:03;15.60;;;4.70;;
466;SDS011;72290;48.808;9.222;2023-10-13T11:06:56;11.23;;;4.23;;
466;SDS011;72290;48.808;9.222;2023-10-13T11:09:30;14.10;;;5.07;;
466;SDS011;72290;48.808;9.222;2023-10-13T11:11:57;8.97;;;4.53;;
466;SDS011;72290;48.808;9.222;2023-10-13T11:14:23;20.30;;;7.20;;
466;SDS011;72290;48.808;9.222;2023-10-13T11:16:50;24.63;;;8.03;;
466;SDS011;72290;48.808;9.222;2023-10-13T11:19:18;10.67;;;4.73;;
466;SDS011;72290;48.808;9.222;2023-10-13T11:21:53;10.53;;;5.57;;
466;SDS011;72290;48.808;9.222;2023-10-13T11:24:20;16.50;;;5.40;;
466;SDS011;72290;48.808;9.222;2023-10-13T11:26:47;18.63;;;6.00;;
466;SDS011;72290;48.808;9.222;2023-10-13T11:29:15;10.40;;;5.20;;
466;SDS011;72290;48.808;9.222;2023-10-13T11:31:43;9.30;;;4.33;;
466;SDS011;72290;48.808;9.222;2023-10-13T11:34:11;17.83;;;4.30;;
466;SDS011;72290;48.808;9.222;2023-10-13T11:36:43;12.60;;;5.00;;
466;SDS011;72290;48.808;9.222;2023-10-13T11:39:10;10.30;;;4.53;;
466;SDS011;72290;48.808;9.222;2023-10-13T11:41:43;23.30;;;5.10;;
466;SDS011;72290;48.808;9.222;2023-10-13T11:44:19;15.90;;;5.20;;
466;SDS011;72290;48.808;9.222;2023-10-13T11:46:45;16.43;;;4.73;;
466;SDS011;72290;48.808;9.222;2023-10-13T11:49:20;10.60;;;4.93;;
466;SDS011;72290;48.808;9.222;2023-10-13T11:51:52;12.90;;;4.30;;
466;SDS011;72290;48.808;9.222;2023-10-13T11:54:40;14.20;;;4.60;;
466;SDS011;72290;48.808;9.222;2023-10-13T11:57:07;6.57;;;4.00;;
466;SDS011;72290;48.808;9.222;2023-10-13T11:59:33;12.40;;;5.10;;
466;SDS011;72290;48.808;9.222;2023-10-13T12:02:01;12.63;;;5.40;;
466;SDS011;72290;48.808;9.222;2023-10-13T12:04:37;15.57;;;4.67;;
466;SDS011;72290;48.808;9.222;2023-10-13T12:07:08;6.47;;;4.57;;
466;SDS011;72290;48.808;9.222;2023-10-13T12:09:52;10.13;;;4.97;;
466;SDS011;72290;48.808;9.222;2023-10-13T12:12:25;18.37;;;5.17;;
466;SDS011;72290;48.808;9.222;2023-10-13T12:14:52;15.00;;;4.70;;
466;SDS011;72290;48.808;9.222;2023-10-13T12:17:20;13.50;;;4.97;;
466;SDS011;72290;48.808;9.222;2023-10-13T12:19:59;10.07;;;4.30;;
466;SDS011;72290;48.808;9.222;2023-10-13T12:22:25;13.50;;;4.50;;
466;SDS011;72290;48.808;9.222;2023-10-13T12:25:00;14.53;;;4.90;;
466;SDS011;72290;48.808;9.222;2023-10-13T12:27:29;10.07;;;4.87;;
466;SDS011;72290;48.808;9.222;2023-10-13T12:30:11;10.57;;;4.60;;
466;SDS011;72290;48.808;9.222;2023-10-13T12:32:39;10.03;;;4.37;;
466;SDS011;72290;48.808;9.222;2023-10-13T12:35:10;10.13;;;4.53;;
466;SDS011;72290;48.808;9.222;2023-10-13T12:37:36;9.60;;;4.20;;
466;SDS011;72290;48.808;9.222;2023-10-13T12:40:05;7.73;;;4.00;;
466;SDS011;72290;48.808;9.222;2023-10-13T12:42:50;13.90;;;6.10;;
466;SDS011;72290;48.808;9.222;2023-10-13T12:45:41;15.43;;;5.43;;
466;SDS011;72290;48.808;9.222;2023-10-13T12:48:26;10.23;;;4.23;;
466;SDS011;72290;48.808;9.222;2023-10-13T12:51:11;10.90;;;4.87;;
466;SDS011;72290;48.808;9.222;2023-10-13T12:53:50;9.50;;;4.60;;
466;SDS011;72290;48.808;9.222;2023-10-13T12:56:16;7.80;;;3.93;;
466;SDS011;72290;48.808;9.222;2023-10-13T12:58:42;17.03;;;4.50;;
466;SDS011;72290;48.808;9.222;2023-10-13T13:01:19;12.73;;;4.33;;
466;SDS011;72290;48.808;9.222;2023-10-13T13:03:48;8.97;;;4.10;;
466;SDS011;72290;48.808;9.222;2023-10-13T13:06:24;16.10;;;4.50;;
466;SDS011;72290;48.808;9.222;2023-10-13T13:08:54;11.27;;;4.63;;
466;SDS011;72290;48.808;9.222;2023-10-13T13:11:20;11.00;;;4.23;;
466;SDS011;72290;48.808;9.222;2023-10-13T13:13:46;14.37;;;4.77;;
466;SDS011;72290;48.808;9.222;2023-10-13T13:16:13;9.23;;;3.93;;
466;SDS011;72290;48.808;9.222;2023-10-13T13:18:39;11.13;;;4.90;;
466;SDS011;72290;48.808;9.222;2023-10-13T13:21:05;8.77;;;4.30;;
466;SDS011;72290;48.808;9.222;2023-10-13T13:23:38;17.50;;;5.17;;
466;SDS011;72290;48.808;9.222;2023-10-13T13:26:05;24.53;;;4.97;;
466;SDS011;72290;48.808;9.222;2023-10-13T13:28:49;12.97;;;5.17;;
466;SDS011;72290;48.808;9.222;2023-10-13T13:31:16;10.70;;;4.77;;
466;SDS011;72290;48.808;9.222;2023-10-13T13:33:42;11.10;;;4.40;;
466;SDS011;72290;48.808;9.222;2023-10-13T13:36:11;10.73;;;4.60;;
466;SDS011;72290;48.808;9.222;2023-10-13T13:38:43;15.73;;;4.87;;
466;SDS011;72290;48.808;9.222;2023-10-13T13:41:17;8.70;;;4.37;;
466;SDS011;72290;48.808;9.222;2023-10-13T13:46:16;10.47;;;4.43;;
466;SDS011;72290;48.808;9.222;2023-10-13T13:48:42;15.57;;;4.50;;
466;SDS011;72290;48.808;9.222;2023-10-13T13:51:08;13.10;;;5.07;;
466;SDS011;72290;48.808;9.222;2023-10-13T13:53:44;12.60;;;4.83;;
466;SDS011;72290;48.808;9.222;2023-10-13T13:56:10;11.03;;;4.50;;
466;SDS011;72290;48.808;9.222;2023-10-13T13:58:41;17.13;;;4.90;;
466;SDS011;72290;48.808;9.222;2023-10-13T14:01:07;9.40;;;4.50;;
466;SDS011;72290;48.808;9.222;2023-10-13T14:03:43;13.60;;;4.47;;
466;SDS011;72290;48.808;9.222;2023-10-13T14:06:12;10.43;;;4.27;;
466;SDS011;72290;48.808;9.222;2023-10-13T14:08:46;12.47;;;4.60;;
466;SDS011;72290;48.808;9.222;2023-10-13T14:11:31;10.53;;;4.20;;
466;SDS011;72290;48.808;9.222;2023-10-13T14:14:03;8.30;;;4.17;;
466;SDS011;72290;48.808;9.222;2023-10-13T14:16:36;10.80;;;4.20;;
466;SDS011;72290;48.808;9.222;2023-10-13T14:19:02;10.20;;;4.13;;
466;SDS011;72290;48.808;9.222;2023-10-13T14:21:32;8.93;;;4.00;;
466;SDS011;72290;48.808;9.222;2023-10-13T14:24:00;8.27;;;4.00;;
466;SDS011;72290;48.808;9.222;2023-10-13T14:26:26;10.33;;;4.70;;
466;SDS011;72290;48.808;9.222;2023-10-13T14:28:53;8.37;;;4.63;;
466;SDS011;72290;48.808;9.222;2023-10-13T14:31:45;9.73;;;4.40;;
466;SDS011;72290;48.808;9.222;2023-10-13T14:34:14;8.97;;;4.67;;
466;SDS011;72290;48.808;9.222;2023-10-13T14:36:40;14.23;;;4.30;;
466;SDS011;72290;48.808;9.222;2023-10-13T14:39:06;11.80;;;4.47;;
466;SDS011;72290;48.808;9.222;2023-10-13T14:41:35;8.40;;;4.00;;
466;SDS011;72290;48.808;9.222;2023-10-13T14:44:02;12.90;;;4.10;;
466;SDS011;72290;48.808;9.222;2023-10-13T14:46:32;11.77;;;4.23;;
466;SDS011;72290;48.808;9.222;2023-10-13T14:49:01;7.90;;;3.30;;
466;SDS011;72290;48.808;9.222;2023-10-13T14:51:27;9.13;;;4.27;;
466;SDS011;72290;48.808;9.222;2023-10-13T14:53:54;8.30;;;4.50;;
466;SDS011;72290;48.808;9.222;2023-10-13T14:56:21;6.43;;;3.60;;
466;SDS011;72290;48.808;9.222;2023-10-13T14:58:51;9.40;;;4.10;;
466;SDS011;72290;48.808;9.222;2023-10-13T15:01:17;7.60;;;3.90;;
466;SDS011;72290;48.808;9.222;2023-10-13T15:03:45;10.20;;;4.07;;
466;SDS011;72290;48.808;9.222;2023-10-13T15:06:20;7.77;;;4.10;;
466;SDS011;72290;48.808;9.222;2023-10-13T15:08:49;8.63;;;4.17;;
466;SDS011;72290;48.808;9.222;2023-10-13T15:11:16;9.60;;;3.50;;
466;SDS011;72290;48.808;9.222;2023-10-13T15:13:45;11.57;;;3.57;;
466;SDS011;72290;48.808;9.222;2023-10-13T15:18:41;9.10;;;3.70;;
466;SDS011;72290;48.808;9.222;2023-10-13T15:21:07;10.17;;;4.03;;
466;SDS011;72290;48.808;9.222;2023-10-13T15:23:34;14.73;;;3.60;;
466;SDS011;72290;48.808;9.222;2023-10-13T15:26:07;8.20;;;3.77;;
466;SDS011;72290;48.808;9.222;2023-10-13T15:28:34;12.03;;;3.90;;
466;SDS011;72290;48.808;9.222;2023-10-13T15:31:02;8.47;;;3.57;;
466;SDS011;72290;48.808;9.222;2023-10-13T15:33:50;10.03;;;3.83;;
466;SDS011;72290;48.808;9.222;2023-10-13T15:36:22;6.47;;;3.37;;
466;SDS011;72290;48.808;9.222;2023-10-13T15:38:51;8.73;;;3.20;;
466;SDS011;72290;48.808;9.222;2023-10-13T15:41:21;8.20;;;3.70;;
466;SDS011;72290;48.808;9.222;2023-10-13T15:43:47;9.03;;;3.97;;
466;SDS011;72290;48.808;9.222;2023-10-13T15:46:16;6.40;;;3.67;;
466;SDS011;72290;48.808;9.222;2023-10-13T15:48:43;12.30;;;4.13;;
466;SDS011;72290;48.808;9.222;2023-10-13T15:51:12;12.20;;;3.80;;
466;SDS011;72290;48.808;9.222;2023-10-13T15:53:38;7.30;;;3.50;;
466;SDS011;72290;48.808;9.222;2023-10-13T15:56:04;7.63;;;3.70;;
466;SDS011;72290;48.808;9.222;2023-10-13T15:58:45;6.90;;;3.83;;
466;SDS011;72290;48.808;9.222;2023-10-13T16:01:14;9.27;;;4.23;;
466;SDS011;72290;48.808;9.222;2023-10-13T16:03:41;13.13;;;5.13;;
466;SDS011;72290;48.808;9.222;2023-10-13T16:06:15;8.63;;;3.40;;
466;SDS011;72290;48.808;9.222;2023-10-13T16:08:41;7.60;;;3.57;;
466;SDS011;72290;48.808;9.222;2023-10-13T16:11:08;7.80;;;4.07;;
466;SDS011;72290;48.808;9.222;2023-10-13T16:13:38;9.37;;;4.10;;
466;SDS011;72290;48.808;9.222;2023-10-13T16:16:04;6.03;;;3.23;;
466;SDS011;72290;48.808;9.222;2023-10-13T16:18:30;10.60;;;4.20;;
466;SDS011;72290;48.808;9.222;2023-10-13T16:20:58;12.13;;;3.50;;
466;SDS011;72290;48.808;9.222;2023-10-13T16:23:24;13.37;;;4.80;;
466;SDS011;72290;48.808;9.222;2023-10-13T16:25:50;11.10;;;3.93;;
466;SDS011;72290;48.808;9.222;2023-10-13T16:28:16;9.97;;;3.97;;
466;SDS011;72290;48.808;9.222;2023-10-13T16:30:42;11.00;;;3.73;;
466;SDS011;72290;48.808;9.222;2023-10-13T16:33:09;6.77;;;3.40;;
466;SDS011;72290;48.808;9.222;2023-10-13T16:35:35;8.87;;;4.23;;
466;SDS011;72290;48.808;9.222;2023-10-13T16:38:01;11.07;;;4.10;;
466;SDS011;72290;48.808;9.222;2023-10-13T16:40:35;10.23;;;4.17;;
466;SDS011;72290;48.808;9.222;2023-10-13T16:43:04;14.53;;;5.60;;
466;SDS011;72290;48.808;9.222;2023-10-13T16:45:35;19.83;;;4.97;;
466;SDS011;72290;48.808;9.222;2023-10-13T16:48:01;11.53;;;4.80;;
466;SDS011;72290;48.808;9.222;2023-10-13T16:50:27;13.23;;;5.23;;
466;SDS011;72290;48.808;9.222;2023-10-13T16:52:54;12.80;;;6.00;;
466;SDS011;72290;48.808;9.222;2023-10-13T16:55:21;11.37;;;5.47;;
466;SDS011;72290;48.808;9.222;2023-10-13T16:57:49;15.67;;;6.00;;
466;SDS011;72290;48.808;9.222;2023-10-13T17:00:15;18.23;;;6.03;;
466;SDS011;72290;48.808;9.222;2023-10-13T17:02:43;10.80;;;4.90;;
466;SDS011;72290;48.808;9.222;2023-10-13T17:05:11;10.07;;;4.57;;
466;SDS011;72290;48.808;9.222;2023-10-13T17:07:43;10.03;;;5.00;;
466;SDS011;72290;48.808;9.222;2023-10-13T17:10:12;8.90;;;4.53;;
466;SDS011;72290;48.808;9.222;2023-10-13T17:12:39;14.30;;;6.70;;
466;SDS011;72290;48.808;9.222;2023-10-13T17:15:05;15.00;;;6.57;;
466;SDS011;72290;48.808;9.222;2023-10-13T17:17:39;19.57;;;8.10;;
466;SDS011;72290;48.808;9.222;2023-10-13T17:20:05;14.27;;;8.17;;
466;SDS011;72290;48.808;9.222;2023-10-13T17:22:34;18.20;;;9.60;;
466;SDS011;72290;48.808;9.222;2023-10-13T17:25:01;21.83;;;10.73;;
466;SDS011;72290;48.808;9.222;2023-10-13T17:27:28;16.07;;;8.47;;
466;SDS011;72290;48.808;9.222;2023-10-13T17:29:57;19.17;;;8.50;;
466;SDS011;72290;48.808;9.222;2023-10-13T17:32:23;18.03;;;8.00;;
466;SDS011;72290;48.808;9.222;2023-10-13T17:34:49;20.33;;;7.93;;
466;SDS011;72290;48.808;9.222;2023-10-13T17:37:16;15.20;;;7.03;;
466;SDS011;72290;48.808;9.222;2023-10-13T17:39:42;18.10;;;6.20;;
466;SDS011;72290;48.808;9.222;2023-10-13T17:42:09;16.37;;;6.00;;
466;SDS011;72290;48.808;9.222;2023-10-13T17:44:38;9.00;;;5.23;;
466;SDS011;72290;48.808;9.222;2023-10-13T17:47:04;11.67;;;5.63;;
466;SDS011;72290;48.808;9.222;2023-10-13T17:49:35;10.30;;;4.30;;
466;SDS011;72290;48.808;9.222;2023-10-13T17:52:04;15.10;;;5.17;;
466;SDS011;72290;48.808;9.222;2023-10-13T17:54:30;11.77;;;5.03;;
466;SDS011;72290;48.808;9.222;2023-10-13T17:56:56;11.57;;;5.20;;
466;SDS011;72290;48.808;9.222;2023-10-13T17:59:22;15.30;;;6.53;;
466;SDS011;72290;48.808;9.222;2023-10-13T18:01:48;17.27;;;8.00;;
466;SDS011;72290;48.808;9.222;2023-10-13T18:04:14;13.57;;;7.20;;
466;SDS011;72290;48.808;9.222;2023-10-13T18:06:40;12.73;;;5.73;;
466;SDS011;72290;48.808;9.222;2023-10-13T18:09:07;14.43;;;5.83;;
466;SDS011;72290;48.808;9.222;2023-10-13T18:11:36;14.03;;;5.87;;
466;SDS011;72290;48.808;9.222;2023-10-13T18:14:02;12.90;;;5.90;;
466;SDS011;72290;48.808;9.222;2023-10-13T18:16:28;15.17;;;6.00;;
466;SDS011;72290;48.808;9.222;2023-10-13T18:18:55;21.10;;;5.73;;
466;SDS011;72290;48.808;9.222;2023-10-13T18:21:21;19.40;;;6.83;;
466;SDS011;72290;48.808;9.222;2023-10-13T18:23:48;11.43;;;6.37;;
466;SDS011;72290;48.808;9.222;2023-10-13T18:26:14;18.30;;;8.10;;
466;SDS011;72290;48.808;9.222;2023-10-13T18:28:40;13.50;;;7.13;;
466;SDS011;72290;48.808;9.222;2023-10-13T18:31:06;16.73;;;10.17;;
466;SDS011;72290;48.808;9.222;2023-10-13T18:33:36;19.10;;;10.60;;
466;SDS011;72290;48.808;9.222;2023-10-13T18:36:17;18.60;;;9.30;;
466;SDS011;72290;48.808;9.222;2023-10-13T18:38:45;21.33;;;7.80;;
466;SDS011;72290;48.808;9.222;2023-10-13T18:41:11;16.73;;;8.20;;
466;SDS011;72290;48.808;9.222;2023-10-13T18:43:39;29.60;;;9.60;;
466;SDS011;72290;48.808;9.222;2023-10-13T18:46:06;24.87;;;9.50;;
466;SDS011;72290;48.808;9.222;2023-10-13T18:48:35;22.43;;;8.33;;
466;SDS011;72290;48.808;9.222;2023-10-13T18:51:05;18.10;;;7.97;;
466;SDS011;72290;48.808;9.222;2023-10-13T18:53:31;21.00;;;8.60;;
466;SDS011;72290;48.808;9.222;2023-10-13T18:56:05;24.33;;;8.60;;
466;SDS011;72290;48.808;9.222;2023-10-13T18:58:37;13.43;;;6.93;;
466;SDS011;72290;48.808;9.222;2023-10-13T19:01:14;18.33;;;8.20;;
466;SDS011;72290;48.808;9.222;2023-10-13T19:03:42;17.53;;;7.50;;
466;SDS011;72290;48.808;9.222;2023-10-13T19:06:08;18.57;;;6.70;;
466;SDS011;72290;48.808;9.222;2023-10-13T19:08:34;14.27;;;8.30;;
466;SDS011;72290;48.808;9.222;2023-10-13T19:11:04;16.80;;;6.83;;
466;SDS011;72290;48.808;9.222;2023-10-13T19:13:33;15.77;;;6.77;;
466;SDS011;72290;48.808;9.222;2023-10-13T19:16:02;17.77;;;7.57;;
466;SDS011;72290;48.808;9.222;2023-10-13T19:18:28;15.20;;;8.47;;
466;SDS011;72290;48.808;9.222;2023-10-13T19:20:55;26.53;;;10.40;;
466;SDS011;72290;48.808;9.222;2023-10-13T19:23:21;23.13;;;8.20;;
466;SDS011;72290;48.808;9.222;2023-10-13T19:25:52;14.80;;;7.57;;
466;SDS011;72290;48.808;9.222;2023-10-13T19:28:20;23.20;;;9.17;;
466;SDS011;72290;48.808;9.222;2023-10-13T19:30:47;18.30;;;7.50;;
466;SDS011;72290;48.808;9.222;2023-10-13T19:33:13;21.50;;;7.47;;
466;SDS011;72290;48.808;9.222;2023-10-13T19:35:40;18.20;;;8.17;;
466;SDS011;72290;48.808;9.222;2023-10-13T19:38:06;14.60;;;7.37;;
466;SDS011;72290;48.808;9.222;2023-10-13T19:40:35;24.20;;;9.33;;
466;SDS011;72290;48.808;9.222;2023-10-13T19:43:01;18.60;;;9.07;;
466;SDS011;72290;48.808;9.222;2023-10-13T19:45:37;21.20;;;8.60;;
466;SDS011;72290;48.808;9.222;2023-10-13T19:48:06;16.77;;;7.73;;
466;SDS011;72290;48.808;9.222;2023-10-13T19:50:34;18.30;;;8.13;;
466;SDS011;72290;48.808;9.222;2023-10-13T19:53:02;19.23;;;7.50;;
466;SDS011;72290;48.808;9.222;2023-10-13T19:55:29;22.53;;;8.27;;
466;SDS011;72290;48.808;9.222;2023-10-13T19:58:01;18.57;;;7.57;;
466;SDS011;72290;48.808;9.222;2023-10-13T20:00:30;13.73;;;6.60;;
466;SDS011;72290;48.808;9.222;2023-10-13T20:02:58;13.50;;;6.40;;
466;SDS011;72290;48.808;9.222;2023-10-13T20:05:24;13.17;;;6.27;;
466;SDS011;72290;48.808;9.222;2023-10-13T20:07:50;21.33;;;7.87;;
466;SDS011;72290;48.808;9.222;2023-10-13T20:10:18;22.07;;;7.00;;
466;SDS011;72290;48.808;9.222;2023-10-13T20:12:45;19.33;;;7.00;;
466;SDS011;72290;48.808;9.222;2023-10-13T20:15:11;13.73;;;5.80;;
466;SDS011;72290;48.808;9.222;2023-10-13T20:17:38;15.87;;;6.63;;
466;SDS011;72290;48.808;9.222;2023-10-13T20:20:07;17.10;;;7.23;;
466;SDS011;72290;48.808;9.222;2023-10-13T20:22:33;9.87;;;5.00;;
466;SDS011;72290;48.808;9.222;2023-10-13T20:25:03;12.60;;;3.80;;
466;SDS011;72290;48.808;9.222;2023-10-13T20:27:30;9.50;;;3.93;;
466;SDS011;72290;48.808;9.222;2023-10-13T20:29:56;10.03;;;4.87;;
466;SDS011;72290;48.808;9.222;2023-10-13T20:32:22;11.27;;;4.70;;
466;SDS011;72290;48.808;9.222;2023-10-13T20:34:48;12.70;;;3.90;;
466;SDS011;72290;48.808;9.222;2023-10-13T20:37:14;9.47;;;4.73;;
466;SDS011;72290;48.808;9.222;2023-10-13T20:39:44;8.37;;;4.23;;
466;SDS011;72290;48.808;9.222;2023-10-13T20:42:10;12.73;;;4.40;;
466;SDS011;72290;48.808;9.222;2023-10-13T20:44:40;8.20;;;4.00;;
466;SDS011;72290;48.808;9.222;2023-10-13T20:47:06;10.20;;;4.20;;